Prairie, Illinois
Current Conditions -  °F | °C
As of 1:15 PM on Monday 22 Dec 2014 (Local Time) from KCUL Reporting Station
Light Rain Light Rain  
Wind Chill: 45°   Ceiling: 2000
Heat Index: 50°   Visibility: 4mi
Dew Point: 48°   Wind: 13mph
Humidity: 92%   Direction: 120°ESE
Pressure: 29.7"   Gusts: NA
Location:  38.1945°N, 88.2116°W
Report Text: KCUL 221915Z AUTO 12011KT 4SM -RA OVC020 10/09 A2970 RMK AO2 T00990087
Loading
Personal Weather Stations






























Interactive Weather Map New forecast layout! Learn more

10-Day Weather Forecast

Advertisements
Track Severe Weather on mobile